AirNav   Pilot Hours Calculator
 
 586 users online  

2AL3 Emerald Mountain Airport
Wetumpka, Alabama, USA

GOING TO WETUMPKA?


FAA INFORMATION EFFECTIVE 31 JANUARY 2019

Location

FAA Identifier: 2AL3
Lat/Long: 32-27-19.4910N / 086-07-09.0000W
32-27.324850N / 086-07.150000W
32.4554142 / -86.1191667
(estimated)
Elevation: 365 ft. / 111 m (estimated)
Variation: 01W (1990)
From city: 7 miles SE of WETUMPKA, AL
Time zone: UTC -6 (UTC -5 during Daylight Saving Time)
Zip code: 36093

Airport Operations

Airport use: Private use. Permission required prior to landing
Activation date: 01/1994
Control tower: no
ARTCC: ATLANTA CENTER
FSS: ANNISTON FLIGHT SERVICE STATION
Attendance: UNATNDD
Wind indicator: lighted
Segmented circle: no
Lights: ACTVT LIRL RY 06/24 - UNICOM.

Airport Communications

UNICOM: 122.8
WX ASOS at MGM (17 nm SW): PHONE 334-288-0445
WX AWOS-3P at 1A9 (20 nm W): 118.025 (334-358-0919)

Nearby radio navigation aids

VOR radial/distance  VOR name  Freq  Var
MGMr033/17.3MONTGOMERY VORTAC112.1003E
TGEr264/22.8TUSKEGEE VOR/DME117.3002E

 
NDB name  Hdg/Dist  Freq  Var  ID
BLOOD003/37.536504WTOI - --- ..

Airport Services

Runway Information

Runway 6/24

Dimensions: 2750 x 80 ft. / 838 x 24 m
Surface: turf, in good condition
Runway edge lights: low intensity
RUNWAY 6  RUNWAY 24
Traffic pattern: leftleft
Obstructions: 60 ft. tree, 540 ft. from runway60 ft. tree, 1500 ft. from runway

Airport Ownership and Management from official FAA records

Ownership: Privately-owned
Owner: SIM ALLEN
407 PEACE CHURCH RD
WETUMPKA, AL 36092
Phone 205-267-0700
Manager: SIM ALLEN
407 PEACE CHURCH RD
WETUMPKA, AL 36092
Phone 205-267-0700

Airport Operational Statistics

Aircraft based on the field: 1
Single engine airplanes: 1
    

Instrument Procedures

There are no published instrument procedures at 2AL3.

Some nearby airports with instrument procedures:

08A - Wetumpka Municipal Airport (12 nm W)
KMXF - Maxwell Air Force Base (13 nm W)
KMGM - Montgomery Regional Airport (Dannelly Field) (17 nm SW)
1A9 - Prattville Airport - Grouby Field (20 nm W)
06A - Moton Field Municipal Airport (22 nm E)
 
Loc | Ops | Rwys | IFR | FBO | Links
Com | Nav | Svcs | Stats | Notes
Area around 2AL3 (Emerald Mountain Airport)
 
Road maps at: MapQuest Bing Google
 
Aerial photo
No photo
 
Sectional chart

 
Airport distance calculator
Flying to Emerald Mountain Airport? Find the distance to fly.

From to 2AL3

Sunrise and sunset
Times for 22-Feb-2019
 Local
(UTC-6)
 Zulu
(UTC)
Morning civil twilight05:5611:56
Sunrise06:2112:21
Sunset17:3523:35
Evening civil twilight18:0024:00

Current date and time
Zulu (UTC)  23-Feb-2019 05:18:15
Local (UTC-6)  22-Feb-2019 23:18:15
 
METAR
KMXF 
14nm SW 
230456Z AUTO 00000KT 10SM BKN095 20/18 A3008 RMK AO2 SLP188 T01950178 $
KMGM 
17nm SW 
230453Z 10003KT 10SM OVC100 21/18 A3009 RMK AO2 SLP187 T02060178
K1A9 
20nm W 
230455Z AUTO 00000KT 2 1/2SM BR OVC100 18/18 A3009 RMK AO2 T01830183
TAF
KMXF 
14nm SW 
222000Z 2220/2402 18009KT 9999 FEW035 QNH3006INS BECMG 2300/2301 18006KT 8000 -SHRA BR BKN030 QNH3009INS BECMG 2304/2305 17009KT 9000 BR OVC010 QNH3004INS BECMG 2316/2317 16010G15KT 8000 -SHRA BR OVC010 QNH3006INS BECMG 2318/2319 18012G20KT 9000 BR BKN017 QNH2994INS BECMG 2400/2401 17010G15KT 9999 NSW SCT023 QNH2993INS TX29/2320Z TN20/2308Z LAST NO AMDS AFT 2304 NEXT 2312
KMGM 
17nm SW 
221931Z 2220/2318 18006KT P6SM SCT025 FM222100 17007KT P6SM SHRA BKN030 BKN100 FM230300 14004KT P6SM BKN006 BKN015 FM230600 13007KT 4SM BR OVC006
NOTAMs
Click for the latest NOTAMs
NOTAMs are issued by the DoD/FAA and will open in a separate window not controlled by AirNav.

 

 
 

Would you like to see your business listed on this page?

 If your business provides an interesting product or service to pilots, flight crews, aircraft, or users of the Emerald Mountain Airport, you should consider listing it here.  To start the listing process, click on the button below
 
Add a business
 

Other Pages about Emerald Mountain Airport

Update a link
 
Copyright © AirNav, LLC. All rights reserved. Privacy Policy  Contact